Cherry Run, West Virginia
Current Conditions -  °F | °C
As of 7:53 AM on Friday 24 Oct 2014 (Local Time) from KMRB Reporting Station
Few Clouds Few Clouds  
Wind Chill: 51°   Ceiling: Unl
Heat Index: 51°   Visibility: 10mi
Dew Point: 40°   Wind: 6mph
Humidity: 66%   Direction: 310°NW
Pressure: 30.02"   Gusts: NA
Location:  39.5195°N, 78.0934°W
Report Text: KMRB 241153Z 31005KT 10SM FEW029 11/04 A3002 RMK AO2 SLP165 T01060044 10128 20106 51012
Loading
Personal Weather Stations






























Interactive Weather Map
Tropical Storm Tracking
New forecast layout! Learn more

10-Day Weather Forecast

Advertisements
Track Severe Weather on mobile